createdAt,value
2022-07-29T00:01:44.209Z,1.70
2022-07-29T00:04:11.746Z,1.60
2022-07-29T00:06:39.173Z,1.90
2022-07-29T00:09:06.593Z,1.70
2022-07-29T00:11:33.898Z,1.50
2022-07-29T00:14:01.230Z,1.48
2022-07-29T00:16:28.255Z,1.55
2022-07-29T00:18:55.276Z,1.80
2022-07-29T00:21:28.309Z,1.50
2022-07-29T00:24:02.356Z,1.58
2022-07-29T00:26:32.635Z,1.63
2022-07-29T00:29:32.424Z,1.40
2022-07-29T00:31:49.241Z,1.90
2022-07-29T00:34:34.593Z,2.08
2022-07-29T00:37:17.025Z,1.98
2022-07-29T00:39:44.122Z,1.65
2022-07-29T00:42:11.172Z,2.15
2022-07-29T00:44:40.167Z,1.90
2022-07-29T00:47:09.123Z,2.00
2022-07-29T00:49:36.623Z,2.00
2022-07-29T00:52:05.990Z,1.80
2022-07-29T00:54:34.836Z,1.92
2022-07-29T00:57:02.537Z,2.25
2022-07-29T00:59:34.605Z,2.30
2022-07-29T01:02:05.889Z,2.40
2022-07-29T01:04:33.572Z,2.20
2022-07-29T01:07:04.225Z,2.08
2022-07-29T01:09:42.175Z,2.13
2022-07-29T01:12:20.390Z,2.38
2022-07-29T01:14:49.963Z,2.10
2022-07-29T01:17:52.712Z,2.38
2022-07-29T01:21:03.570Z,2.15
2022-07-29T01:24:18.782Z,2.20
2022-07-29T01:27:10.168Z,2.30
2022-07-29T01:29:55.412Z,2.40
2022-07-29T01:32:31.178Z,2.08
2022-07-29T01:35:13.512Z,2.83
2022-07-29T01:38:10.796Z,2.60
2022-07-29T01:40:55.461Z,2.22
2022-07-29T01:43:28.826Z,2.65
2022-07-29T01:46:05.307Z,2.63
2022-07-29T01:48:40.200Z,2.55
2022-07-29T01:51:20.911Z,2.60
2022-07-29T01:54:00.605Z,2.42
2022-07-29T01:56:30.733Z,2.42
2022-07-29T01:58:59.662Z,2.40
2022-07-29T02:01:28.439Z,2.25
2022-07-29T02:03:56.954Z,2.78
2022-07-29T02:06:26.637Z,2.90
2022-07-29T02:08:54.851Z,2.33
2022-07-29T02:11:22.028Z,2.20
2022-07-29T02:13:50.861Z,2.00
2022-07-29T02:16:20.302Z,3.00
2022-07-29T02:18:52.645Z,2.80
2022-07-29T02:21:29.127Z,2.60
2022-07-29T02:24:01.004Z,2.60
2022-07-29T02:26:30.288Z,2.17
2022-07-29T02:29:00.382Z,2.60
2022-07-29T02:31:34.686Z,2.80
2022-07-29T02:34:04.823Z,2.75
2022-07-29T02:36:36.386Z,2.47
2022-07-29T02:39:05.090Z,2.13
2022-07-29T02:41:41.618Z,2.35
2022-07-29T02:44:17.426Z,2.78
2022-07-29T02:47:30.587Z,2.67
2022-07-29T02:50:29.197Z,2.80
2022-07-29T02:53:32.578Z,2.40
2022-07-29T02:56:15.219Z,2.97
2022-07-29T02:58:48.142Z,2.83
2022-07-29T03:01:24.084Z,3.07
2022-07-29T03:03:55.101Z,2.50
2022-07-29T03:06:37.559Z,2.73
2022-07-29T03:09:12.780Z,2.97
2022-07-29T03:11:46.248Z,3.50
2022-07-29T03:14:20.566Z,3.80
2022-07-29T03:16:49.000Z,3.23
2022-07-29T03:19:16.686Z,3.50
2022-07-29T03:21:43.738Z,3.20
2022-07-29T03:24:11.150Z,3.00
2022-07-29T03:26:38.583Z,3.50
2022-07-29T03:29:05.768Z,3.33
2022-07-29T03:31:33.503Z,3.23
2022-07-29T03:34:00.825Z,3.27
2022-07-29T03:36:27.834Z,3.40
2022-07-29T03:38:55.700Z,3.23
2022-07-29T03:41:25.870Z,3.27
2022-07-29T03:43:54.009Z,3.63
2022-07-29T03:46:24.455Z,3.50
2022-07-29T03:48:57.503Z,3.53
2022-07-29T03:51:33.502Z,3.50
2022-07-29T03:54:10.077Z,3.57
2022-07-29T03:56:42.291Z,3.80
2022-07-29T03:59:10.607Z,3.50
2022-07-29T04:01:39.549Z,3.23
2022-07-29T04:04:06.714Z,3.20
2022-07-29T04:06:44.607Z,3.47
2022-07-29T04:09:12.841Z,3.90
2022-07-29T04:12:03.912Z,4.10
2022-07-29T04:14:28.101Z,3.83
2022-07-29T04:16:55.080Z,3.67
2022-07-29T04:19:22.076Z,3.83
2022-07-29T04:21:49.011Z,3.87
2022-07-29T04:24:16.306Z,4.37
2022-07-29T04:26:43.517Z,4.20
2022-07-29T04:29:10.633Z,3.97
2022-07-29T04:31:37.759Z,4.07
2022-07-29T04:34:04.845Z,4.20
2022-07-29T04:36:31.766Z,4.03
2022-07-29T04:38:59.146Z,4.30
2022-07-29T04:41:33.129Z,4.20
2022-07-29T04:44:05.910Z,4.53
2022-07-29T04:46:35.342Z,4.40
2022-07-29T04:49:04.033Z,4.30
2022-07-29T04:51:31.390Z,4.07
2022-07-29T04:53:58.417Z,4.27
2022-07-29T04:56:25.449Z,4.40
2022-07-29T04:58:52.456Z,4.10
2022-07-29T05:01:19.717Z,3.93
2022-07-29T05:03:46.938Z,3.80
2022-07-29T05:06:13.949Z,4.00
2022-07-29T05:08:41.917Z,4.07
2022-07-29T05:11:12.555Z,3.70
2022-07-29T05:13:45.045Z,3.70
2022-07-29T05:16:14.097Z,4.37
2022-07-29T05:18:41.481Z,4.10
2022-07-29T05:21:08.599Z,4.03
2022-07-29T05:23:35.556Z,4.27
2022-07-29T05:26:02.670Z,4.10
2022-07-29T05:28:29.757Z,4.75
2022-07-29T05:30:57.309Z,4.57
2022-07-29T05:33:35.912Z,4.43
2022-07-29T05:36:08.000Z,4.90
2022-07-29T05:38:37.007Z,5.20
2022-07-29T05:41:06.107Z,4.83
2022-07-29T05:43:33.766Z,4.80
2022-07-29T05:46:00.994Z,5.63
2022-07-29T05:48:28.728Z,5.28
2022-07-29T05:50:55.973Z,5.15
2022-07-29T05:53:23.538Z,4.25
2022-07-29T05:55:51.546Z,4.15
2022-07-29T05:58:18.544Z,4.60
2022-07-29T06:00:45.747Z,4.50
2022-07-29T06:03:12.846Z,5.32
2022-07-29T06:05:39.902Z,5.25
2022-07-29T06:08:08.571Z,4.93
2022-07-29T06:10:39.345Z,5.00
2022-07-29T06:13:06.320Z,4.22
2022-07-29T06:15:34.365Z,4.47
2022-07-29T06:18:02.457Z,4.80
2022-07-29T06:20:32.016Z,4.60
2022-07-29T06:23:00.546Z,4.82
2022-07-29T06:25:31.761Z,4.80
2022-07-29T06:28:00.429Z,4.65
2022-07-29T06:30:29.818Z,5.10
2022-07-29T06:32:56.970Z,4.85
2022-07-29T06:35:41.363Z,4.28
2022-07-29T06:38:30.191Z,4.60
2022-07-29T06:41:07.013Z,4.22
2022-07-29T06:43:51.835Z,4.20
2022-07-29T06:46:23.130Z,4.50
2022-07-29T06:48:50.928Z,4.22
2022-07-29T06:51:22.683Z,3.88
2022-07-29T06:53:58.292Z,4.03
2022-07-29T06:56:29.440Z,4.05
2022-07-29T06:58:56.610Z,4.28
2022-07-29T07:01:23.606Z,4.30
2022-07-29T07:03:51.118Z,3.65
2022-07-29T07:06:18.522Z,3.92
2022-07-29T07:08:45.561Z,4.15
2022-07-29T07:11:12.852Z,4.25
2022-07-29T07:13:39.880Z,4.47
2022-07-29T07:16:06.885Z,4.35
2022-07-29T07:18:34.122Z,3.72
2022-07-29T07:21:01.158Z,3.70
2022-07-29T07:23:28.102Z,4.30
2022-07-29T07:25:55.047Z,3.40
2022-07-29T07:28:27.209Z,4.00
2022-07-29T07:30:54.112Z,4.00
2022-07-29T07:33:21.422Z,4.55
2022-07-29T07:35:50.083Z,4.03
2022-07-29T07:38:17.031Z,4.63
2022-07-29T07:40:44.429Z,4.20
2022-07-29T07:43:11.469Z,3.70
2022-07-29T07:45:41.150Z,4.10
2022-07-29T07:48:11.095Z,4.00
2022-07-29T07:50:38.405Z,4.28
2022-07-29T07:53:05.735Z,4.03
2022-07-29T07:55:59.996Z,4.45
2022-07-29T07:58:19.881Z,3.90
2022-07-29T08:00:46.831Z,4.03
2022-07-29T08:03:17.010Z,3.80
2022-07-29T08:05:44.985Z,4.18
2022-07-29T08:08:11.908Z,4.07
2022-07-29T08:10:54.417Z,4.00
2022-07-29T08:13:23.997Z,3.75
2022-07-29T08:16:01.709Z,4.15
2022-07-29T08:18:31.425Z,3.88
2022-07-29T08:20:59.492Z,3.30
2022-07-29T08:23:31.601Z,3.42
2022-07-29T08:26:14.415Z,3.70
2022-07-29T08:28:47.300Z,3.45
2022-07-29T08:31:15.099Z,3.67
2022-07-29T08:33:42.757Z,3.25
2022-07-29T08:36:10.004Z,4.10
2022-07-29T08:38:37.018Z,3.60
2022-07-29T08:41:07.136Z,3.40
2022-07-29T08:43:36.250Z,3.83
2022-07-29T08:46:03.477Z,3.45
2022-07-29T08:48:31.105Z,3.75
2022-07-29T08:50:58.868Z,4.55
2022-07-29T08:53:28.205Z,3.97
2022-07-29T08:55:57.055Z,4.30
2022-07-29T08:58:26.010Z,4.18
2022-07-29T09:00:56.248Z,4.32
2022-07-29T09:03:31.694Z,4.68
2022-07-29T09:06:01.007Z,4.65
2022-07-29T09:08:28.462Z,4.25
2022-07-29T09:10:59.392Z,4.07
2022-07-29T09:13:27.405Z,3.72
2022-07-29T09:15:54.900Z,4.38
2022-07-29T09:18:42.163Z,3.97
2022-07-29T09:21:31.507Z,4.22
2022-07-29T09:24:13.393Z,3.72
2022-07-29T09:26:43.875Z,3.72
2022-07-29T09:29:16.809Z,4.68
2022-07-29T09:31:50.091Z,4.07
2022-07-29T09:34:24.827Z,3.63
2022-07-29T09:36:54.552Z,3.30
2022-07-29T09:39:48.406Z,3.67
2022-07-29T09:42:28.858Z,3.30
2022-07-29T09:44:55.869Z,3.17
2022-07-29T09:47:25.007Z,3.28
2022-07-29T09:50:00.484Z,2.80
2022-07-29T09:52:29.788Z,3.10
2022-07-29T09:55:08.375Z,2.55
2022-07-29T09:57:35.766Z,3.13
2022-07-29T10:00:07.763Z,2.58
2022-07-29T10:02:37.898Z,2.25
2022-07-29T10:05:36.199Z,2.08
2022-07-29T10:08:04.317Z,2.25
2022-07-29T10:10:38.553Z,1.98
2022-07-29T10:13:15.052Z,2.33
2022-07-29T10:15:46.174Z,2.20
2022-07-29T10:18:14.851Z,1.90
2022-07-29T10:20:42.046Z,2.00
2022-07-29T10:23:10.490Z,2.25
2022-07-29T10:25:38.605Z,2.42
2022-07-29T10:28:07.450Z,1.98
2022-07-29T10:30:35.135Z,2.40
2022-07-29T10:33:28.919Z,3.10
2022-07-29T10:36:34.650Z,2.67
2022-07-29T10:39:41.635Z,2.22
2022-07-29T10:42:43.589Z,2.20
2022-07-29T10:45:11.931Z,1.95
2022-07-29T10:47:39.379Z,1.90
2022-07-29T10:50:08.987Z,2.05
2022-07-29T10:52:53.021Z,1.95
2022-07-29T10:55:43.721Z,2.30
2022-07-29T10:58:24.566Z,2.20
2022-07-29T11:00:54.259Z,1.73
2022-07-29T11:03:52.364Z,2.08
2022-07-29T11:06:26.941Z,1.88
2022-07-29T11:09:25.878Z,1.92
2022-07-29T11:12:04.801Z,2.10
2022-07-29T11:15:00.439Z,1.67
2022-07-29T11:17:27.701Z,2.10
2022-07-29T11:20:42.962Z,1.60
2022-07-29T11:23:43.414Z,1.92
2022-07-29T11:26:18.528Z,1.80
2022-07-29T11:28:55.552Z,2.15
2022-07-29T11:31:47.166Z,2.13
2022-07-29T11:34:37.003Z,1.70
2022-07-29T11:37:10.415Z,1.92
2022-07-29T11:39:45.594Z,1.85
2022-07-29T11:42:28.323Z,2.33
2022-07-29T11:45:43.861Z,1.88
2022-07-29T11:48:28.913Z,1.95
2022-07-29T11:51:01.509Z,2.10
2022-07-29T11:53:33.046Z,1.80
2022-07-29T11:56:02.523Z,1.70
2022-07-29T11:58:30.455Z,1.63
2022-07-29T12:01:04.758Z,2.10
2022-07-29T12:03:38.169Z,2.17
2022-07-29T12:06:18.087Z,1.70
2022-07-29T12:08:47.414Z,1.50
2022-07-29T12:11:32.490Z,1.52
2022-07-29T12:14:00.605Z,1.63
2022-07-29T12:16:38.553Z,1.80
2022-07-29T12:19:08.593Z,2.00
2022-07-29T12:22:01.019Z,1.90
2022-07-29T12:24:45.268Z,1.60
2022-07-29T12:27:19.195Z,2.25
2022-07-29T12:30:02.168Z,1.70
2022-07-29T12:32:48.822Z,1.65
2022-07-29T12:35:23.174Z,1.60
2022-07-29T12:37:52.635Z,1.48
2022-07-29T12:40:24.029Z,1.70
2022-07-29T12:43:16.441Z,1.83
2022-07-29T12:45:53.081Z,1.80
2022-07-29T12:48:35.394Z,2.00
2022-07-29T12:51:07.091Z,1.60
2022-07-29T12:53:36.116Z,1.83
2022-07-29T12:56:20.701Z,1.70
2022-07-29T12:58:53.469Z,2.03
2022-07-29T13:01:23.760Z,1.88
2022-07-29T13:03:57.354Z,1.77
2022-07-29T13:06:45.788Z,2.50
2022-07-29T13:09:19.664Z,2.00
2022-07-29T13:11:53.442Z,1.80
2022-07-29T13:14:39.014Z,1.90
2022-07-29T13:17:23.985Z,2.15
2022-07-29T13:19:54.628Z,1.90
2022-07-29T13:22:25.617Z,2.58
2022-07-29T13:24:59.750Z,2.00
2022-07-29T13:27:30.014Z,2.35
2022-07-29T13:30:00.505Z,1.77
2022-07-29T13:32:30.782Z,1.75
2022-07-29T13:35:01.713Z,2.20
2022-07-29T13:37:35.412Z,1.90
2022-07-29T13:40:04.257Z,2.25
2022-07-29T13:42:33.372Z,1.85
2022-07-29T13:45:02.083Z,2.33
2022-07-29T13:47:33.333Z,2.08
2022-07-29T13:50:08.757Z,1.90
2022-07-29T13:52:35.788Z,2.17
2022-07-29T13:55:04.760Z,2.22
2022-07-29T13:57:31.860Z,2.10
2022-07-29T13:59:59.213Z,2.10
2022-07-29T14:02:26.406Z,1.98
2022-07-29T14:04:55.577Z,1.60
2022-07-29T14:07:24.176Z,1.70
2022-07-29T14:09:51.797Z,1.45
2022-07-29T14:12:19.096Z,1.58
2022-07-29T14:14:47.371Z,2.08
2022-07-29T14:17:15.185Z,1.90
2022-07-29T14:19:43.899Z,1.70
2022-07-29T14:22:12.280Z,1.70
2022-07-29T14:24:39.715Z,1.45
2022-07-29T14:27:08.973Z,1.48
2022-07-29T14:29:38.211Z,1.58
2022-07-29T14:32:09.062Z,1.75
2022-07-29T14:34:37.897Z,2.10
2022-07-29T14:37:06.851Z,1.42
2022-07-29T14:39:42.347Z,1.80
2022-07-29T14:42:17.535Z,1.80
2022-07-29T14:44:44.661Z,1.65
2022-07-29T14:47:12.804Z,1.63
2022-07-29T14:49:39.752Z,1.80
2022-07-29T14:52:06.971Z,1.77
2022-07-29T14:54:34.490Z,1.60
2022-07-29T14:57:02.043Z,1.63
2022-07-29T14:59:29.006Z,1.63
2022-07-29T15:01:56.612Z,2.05
2022-07-29T15:04:24.065Z,1.98
2022-07-29T15:06:51.155Z,2.20
2022-07-29T15:09:18.071Z,1.83
2022-07-29T15:11:45.510Z,1.85
2022-07-29T15:14:14.838Z,1.95
2022-07-29T15:16:43.658Z,1.73
2022-07-29T15:19:11.168Z,1.85
2022-07-29T15:21:41.334Z,1.80
2022-07-29T15:24:15.940Z,2.20
2022-07-29T15:26:44.491Z,1.90
2022-07-29T15:29:11.579Z,1.85
2022-07-29T15:31:38.681Z,1.70
2022-07-29T15:34:06.541Z,2.20
2022-07-29T15:39:21.885Z,2.00
2022-07-29T15:41:50.471Z,2.83
2022-07-29T15:44:18.148Z,1.55
2022-07-29T15:47:03.540Z,1.80
2022-07-29T15:49:47.361Z,1.98
2022-07-29T15:52:24.985Z,1.75
2022-07-29T15:54:55.549Z,1.90
2022-07-29T15:57:23.579Z,1.90
2022-07-29T15:59:50.830Z,2.08
2022-07-29T16:02:18.042Z,2.00
2022-07-29T16:04:45.108Z,1.80
2022-07-29T16:07:12.401Z,1.70
2022-07-29T16:09:49.302Z,1.83
2022-07-29T16:12:30.657Z,1.92
2022-07-29T16:14:57.640Z,1.80
2022-07-29T16:17:24.561Z,2.10
2022-07-29T16:19:51.548Z,1.90
2022-07-29T16:22:18.542Z,2.30
2022-07-29T16:24:45.501Z,2.15
2022-07-29T16:27:12.611Z,2.10
2022-07-29T16:29:39.648Z,2.08
2022-07-29T16:32:06.952Z,2.08
2022-07-29T16:34:34.291Z,2.60
2022-07-29T16:37:01.576Z,2.05
2022-07-29T16:39:28.688Z,2.78
2022-07-29T16:41:59.845Z,2.20
2022-07-29T16:44:28.679Z,3.20
2022-07-29T16:46:58.950Z,3.47
2022-07-29T16:49:27.431Z,3.10
2022-07-29T16:51:54.873Z,2.10
2022-07-29T16:54:21.815Z,2.78
2022-07-29T16:56:48.828Z,2.33
2022-07-29T16:59:15.752Z,2.15
2022-07-29T17:01:42.774Z,2.53
2022-07-29T17:04:11.016Z,2.67
2022-07-29T17:06:40.841Z,2.55
2022-07-29T17:09:09.976Z,2.00
2022-07-29T17:11:53.087Z,2.33
2022-07-29T17:14:27.122Z,2.35
2022-07-29T17:17:02.648Z,2.20
2022-07-29T17:19:35.532Z,2.10
2022-07-29T17:22:12.941Z,2.00
2022-07-29T17:24:41.632Z,2.42
2022-07-29T17:27:09.862Z,2.60
2022-07-29T17:29:37.098Z,2.92
2022-07-29T17:32:04.665Z,2.33
2022-07-29T17:34:39.126Z,2.55
2022-07-29T17:37:09.515Z,2.42
2022-07-29T17:39:41.275Z,2.17
2022-07-29T17:42:13.748Z,2.30
2022-07-29T17:44:41.220Z,2.70
2022-07-29T17:47:15.591Z,2.60
2022-07-29T17:49:44.095Z,2.50
2022-07-29T17:52:11.415Z,2.28
2022-07-29T17:54:38.336Z,1.90
2022-07-29T17:57:05.307Z,2.47
2022-07-29T17:59:32.330Z,1.90
2022-07-29T18:01:59.341Z,2.40
2022-07-29T18:04:26.361Z,1.95
2022-07-29T18:06:53.821Z,2.03
2022-07-29T18:09:20.911Z,2.47
2022-07-29T18:11:48.873Z,2.00
2022-07-29T18:14:16.031Z,1.85
2022-07-29T18:16:43.050Z,1.80
2022-07-29T18:19:12.473Z,2.10
2022-07-29T18:21:51.110Z,1.90
2022-07-29T18:24:24.563Z,1.98
2022-07-29T18:26:51.786Z,1.83
2022-07-29T18:29:19.023Z,1.90
2022-07-29T18:31:46.244Z,2.00
2022-07-29T18:34:13.330Z,2.10
2022-07-29T18:36:40.250Z,2.00
2022-07-29T18:39:07.231Z,2.13
2022-07-29T18:41:38.163Z,2.30
2022-07-29T18:44:17.691Z,1.90
2022-07-29T18:46:55.766Z,2.05
2022-07-29T18:49:27.530Z,2.30
2022-07-29T18:51:54.603Z,1.75
2022-07-29T18:54:21.690Z,1.80
2022-07-29T18:56:49.010Z,2.10
2022-07-29T18:59:19.539Z,2.17
2022-07-29T19:01:47.513Z,2.15
2022-07-29T19:04:16.022Z,2.08
2022-07-29T19:06:43.337Z,1.80
2022-07-29T19:09:10.410Z,2.00
2022-07-29T19:11:38.819Z,1.92
2022-07-29T19:14:06.703Z,1.85
2022-07-29T19:16:33.792Z,1.80
2022-07-29T19:19:01.088Z,1.92
2022-07-29T19:21:30.533Z,2.03
2022-07-29T19:23:59.924Z,2.10
2022-07-29T19:26:31.356Z,1.63
2022-07-29T19:28:58.290Z,1.70
2022-07-29T19:31:26.588Z,1.80
2022-07-29T19:34:03.413Z,1.75
2022-07-29T19:36:31.386Z,2.03
2022-07-29T19:39:00.141Z,2.10
2022-07-29T19:41:29.983Z,1.90
2022-07-29T19:43:57.134Z,2.20
2022-07-29T19:46:25.163Z,2.15
2022-07-29T19:48:53.051Z,2.20
2022-07-29T19:51:20.244Z,2.17
2022-07-29T19:53:47.216Z,1.80
2022-07-29T19:56:14.148Z,2.40
2022-07-29T19:58:42.271Z,2.47
2022-07-29T20:01:11.368Z,2.88
2022-07-29T20:03:40.196Z,2.60
2022-07-29T20:06:07.854Z,2.63
2022-07-29T20:08:35.067Z,2.25
2022-07-29T20:11:02.753Z,3.08
2022-07-29T20:13:33.008Z,2.80
2022-07-29T20:16:01.791Z,2.80
2022-07-29T20:18:28.917Z,2.90
2022-07-29T20:20:57.511Z,2.95
2022-07-29T20:23:24.585Z,3.03
2022-07-29T20:25:51.727Z,2.35
2022-07-29T20:28:18.720Z,2.63
2022-07-29T20:30:45.709Z,3.00
2022-07-29T20:33:14.697Z,2.83
2022-07-29T20:35:41.772Z,2.67
2022-07-29T20:38:08.685Z,2.92
2022-07-29T20:40:35.867Z,2.90
2022-07-29T20:43:02.961Z,2.70
2022-07-29T20:45:30.479Z,3.33
2022-07-29T20:47:58.455Z,3.20
2022-07-29T20:50:25.493Z,3.15
2022-07-29T20:52:53.060Z,3.05
2022-07-29T20:55:20.272Z,2.60
2022-07-29T20:57:47.314Z,3.20
2022-07-29T21:00:14.748Z,2.90
2022-07-29T21:02:42.015Z,2.80
2022-07-29T21:05:09.649Z,2.85
2022-07-29T21:07:36.706Z,3.03
2022-07-29T21:10:04.468Z,3.10
2022-07-29T21:12:31.431Z,3.33
2022-07-29T21:14:58.400Z,2.80
2022-07-29T21:17:25.531Z,3.38
2022-07-29T21:19:53.326Z,3.10
2022-07-29T21:22:22.291Z,3.17
2022-07-29T21:24:49.570Z,3.50
2022-07-29T21:27:38.442Z,2.90
2022-07-29T21:30:08.165Z,3.28
2022-07-29T21:32:35.459Z,3.30
2022-07-29T21:35:02.678Z,3.58
2022-07-29T21:37:29.723Z,3.00
2022-07-29T21:39:57.099Z,3.20
2022-07-29T21:42:24.449Z,3.30
2022-07-29T21:44:51.711Z,3.45
2022-07-29T21:47:18.696Z,3.08
2022-07-29T21:49:46.500Z,3.80
2022-07-29T21:52:13.893Z,3.67
2022-07-29T21:54:43.142Z,3.58
2022-07-29T21:57:10.421Z,3.88
2022-07-29T21:59:37.479Z,3.75
2022-07-29T22:02:04.501Z,4.15
2022-07-29T22:04:32.213Z,4.03
2022-07-29T22:06:59.825Z,4.18
2022-07-29T22:09:27.297Z,4.18
2022-07-29T22:11:54.990Z,4.28
2022-07-29T22:14:22.340Z,3.80
2022-07-29T22:16:49.425Z,4.82
2022-07-29T22:19:16.516Z,4.13
2022-07-29T22:21:43.633Z,3.80
2022-07-29T22:24:11.270Z,4.55
2022-07-29T22:26:38.663Z,4.10
2022-07-29T22:29:06.612Z,5.38
2022-07-29T22:31:33.906Z,4.78
2022-07-29T22:34:00.912Z,4.13
2022-07-29T22:36:27.874Z,5.03
2022-07-29T22:38:54.791Z,4.82
2022-07-29T22:41:21.749Z,5.30
2022-07-29T22:43:48.720Z,5.22
2022-07-29T22:46:15.975Z,5.43
2022-07-29T22:48:43.050Z,5.03
2022-07-29T22:51:10.173Z,4.60
2022-07-29T22:53:37.319Z,4.20
2022-07-29T22:56:04.600Z,4.80
2022-07-29T22:58:31.603Z,5.88
2022-07-29T23:00:58.841Z,4.60
2022-07-29T23:03:26.108Z,4.60
2022-07-29T23:05:53.106Z,4.57
2022-07-29T23:08:20.272Z,4.70
2022-07-29T23:10:47.638Z,4.47
2022-07-29T23:13:14.834Z,4.50
2022-07-29T23:15:41.967Z,4.70
2022-07-29T23:18:10.262Z,4.82
2022-07-29T23:20:37.203Z,4.95
2022-07-29T23:23:04.342Z,4.32
2022-07-29T23:25:31.644Z,4.38
2022-07-29T23:27:58.601Z,4.13
2022-07-29T23:30:25.711Z,4.10
2022-07-29T23:32:53.351Z,4.50
2022-07-29T23:35:20.730Z,4.53
2022-07-29T23:37:47.945Z,4.72
2022-07-29T23:40:15.780Z,4.85
2022-07-29T23:42:43.382Z,4.53
2022-07-29T23:45:12.745Z,4.10
2022-07-29T23:47:40.377Z,4.03
2022-07-29T23:50:09.333Z,5.18
2022-07-29T23:52:36.345Z,5.32
2022-07-29T23:55:37.734Z,6.00
2022-07-29T23:57:51.903Z,5.55
